Pakpattan Weather



Pakpattan's Current Weather

Temprature 29.092o light rain

light rain

Rain: 31 %

Min Temprature29.092o
Max Temprature29.092o
Humidity26
Wind Speed7.42 m/h
Sun Rise06:09:57
Sun Set17:33:08
Current Time: 18-Oct-2019 16:44:45
Lat/Lon: 30.34, 73.39




Pakpattan's Geo Location



Pakpattan's Weather Forecast

Time Overall Temp Min Temp Max Temp Humidity Wind Speed Rain
18-Oct-2019 (Fri)
17:00:00 light rain 24.080 24.080 29.092 26 7.42 m/h 31 %
20:00:00 light rain 20.560 20.560 24.323 41 6.14 m/h 6 %
23:00:00 light rain 19.390 19.390 21.899 47 3.03 m/h 19 %
19-Oct-2019 (Sat)
02:00:00 scattered clouds 21.610 21.610 22.858 37 3.16 m/h 0 %
05:00:00 scattered clouds 20.848 20.848 20.848 44 4.33 m/h 0 %
08:00:00 clear sky 24.682 24.682 24.682 42 5.35 m/h 0 %
11:00:00 clear sky 32.060 32.060 32.060 27 3.2 m/h 0 %
14:00:00 clear sky 35.003 35.003 35.003 17 2.85 m/h 0 %
17:00:00 few clouds 32.274 32.274 32.274 16 2.04 m/h 0 %
20:00:00 clear sky 25.731 25.731 25.731 24 1.8 m/h 0 %
23:00:00 clear sky 24.344 24.344 24.344 27 2.25 m/h 0 %
20-Oct-2019 (Sun)
02:00:00 clear sky 23.057 23.057 23.057 29 2.73 m/h 0 %
05:00:00 clear sky 21.208 21.208 21.208 34 2.41 m/h 0 %
08:00:00 few clouds 25.724 25.724 25.724 26 2.05 m/h 0 %
11:00:00 scattered clouds 34.620 34.620 34.620 15 1.16 m/h 0 %
14:00:00 clear sky 35.903 35.903 35.903 12 1.98 m/h 0 %
17:00:00 clear sky 32.661 32.661 32.661 13 2.96 m/h 0 %
20:00:00 clear sky 25.943 25.943 25.943 24 2.48 m/h 0 %
23:00:00 clear sky 23.659 23.659 23.659 29 0.79 m/h 0 %
21-Oct-2019 (Mon)
02:00:00 clear sky 23.106 23.106 23.106 29 2.22 m/h 0 %
05:00:00 clear sky 21.817 21.817 21.817 31 2.46 m/h 0 %
08:00:00 clear sky 25.992 25.992 25.992 24 2.05 m/h 0 %
11:00:00 clear sky 33.945 33.945 33.945 14 3.07 m/h 0 %
14:00:00 clear sky 36.138 36.138 36.138 11 2.64 m/h 0 %
17:00:00 clear sky 32.674 32.674 32.674 12 2.19 m/h 0 %
20:00:00 clear sky 26.043 26.043 26.043 19 1.97 m/h 0 %
23:00:00 clear sky 24.934 24.934 24.934 20 2.22 m/h 0 %
22-Oct-2019 (Tue)
02:00:00 clear sky 23.042 23.042 23.042 23 2.01 m/h 0 %
05:00:00 clear sky 20.786 20.786 20.786 26 1.43 m/h 0 %
08:00:00 clear sky 25.611 25.611 25.611 20 2.21 m/h 0 %
11:00:00 clear sky 34.495 34.495 34.495 11 2.04 m/h 0 %
14:00:00 clear sky 36.769 36.769 36.769 8 2.8 m/h 0 %
17:00:00 clear sky 32.799 32.799 32.799 10 2.09 m/h 0 %
20:00:00 clear sky 25.550 25.550 25.550 16 1.24 m/h 0 %
23:00:00 few clouds 24.952 24.952 24.952 16 0.73 m/h 0 %
23-Oct-2019 (Wed)
02:00:00 clear sky 22.135 22.135 22.135 20 0.26 m/h 0 %
05:00:00 clear sky 21.268 21.268 21.268 21 2.17 m/h 0 %
08:00:00 clear sky 25.693 25.693 25.693 16 1.91 m/h 0 %
11:00:00 clear sky 34.624 34.624 34.624 9 3.43 m/h 0 %
14:00:00 clear sky 36.961 36.961 36.961 7 3.2 m/h 0 %

Famous Cities (61)